createdAt,value
2019-04-09T00:00:04.146Z,15.9
2019-04-09T00:15:05.023Z,15.8
2019-04-09T00:30:04.501Z,15.8
2019-04-09T00:45:04.275Z,15.8
2019-04-09T01:00:04.037Z,15.7
2019-04-09T01:15:04.573Z,15.7
2019-04-09T01:30:04.154Z,15.6
2019-04-09T01:45:04.991Z,15.6
2019-04-09T02:00:04.870Z,15.5
2019-04-09T02:15:04.900Z,15.5
2019-04-09T02:30:06.415Z,15.4
2019-04-09T02:45:04.902Z,15.4
2019-04-09T03:00:05.410Z,15.3
2019-04-09T03:15:05.154Z,15.3
2019-04-09T03:30:04.032Z,15.3
2019-04-09T03:45:04.678Z,15.2
2019-04-09T04:00:05.949Z,15.2
2019-04-09T04:15:05.462Z,15.2
2019-04-09T04:30:04.299Z,15.1
2019-04-09T04:45:04.589Z,15.1
2019-04-09T05:00:04.663Z,15.1
2019-04-09T05:15:04.141Z,15
2019-04-09T05:30:04.932Z,15
2019-04-09T05:45:04.230Z,15
2019-04-09T06:00:05.916Z,15
2019-04-09T06:15:04.774Z,15
2019-04-09T06:30:04.931Z,15
2019-04-09T06:45:05.477Z,15.1
2019-04-09T07:00:04.620Z,15.2
2019-04-09T07:15:04.997Z,15.2
2019-04-09T07:30:09.834Z,15.2
2019-04-09T07:45:08.503Z,15.2
2019-04-09T08:00:14.115Z,15.2
2019-04-09T08:15:05.998Z,15.2
2019-04-09T08:30:17.813Z,15.2
2019-04-09T08:45:05.127Z,15.3
2019-04-09T09:00:04.099Z,15.3
2019-04-09T09:15:04.350Z,15.4
2019-04-09T09:30:04.103Z,15.5
2019-04-09T09:45:05.544Z,15.7
2019-04-09T10:00:06.972Z,15.6
2019-04-09T10:15:06.960Z,15.8
2019-04-09T10:30:07.487Z,16
2019-04-09T10:45:05.921Z,16.3
2019-04-09T11:00:06.606Z,16.5
2019-04-09T11:15:05.393Z,16.5
2019-04-09T11:30:05.646Z,16.2
2019-04-09T11:45:05.057Z,16.1
2019-04-09T12:00:05.479Z,16.2
2019-04-09T12:15:04.556Z,16.2
2019-04-09T12:30:04.206Z,16.4
2019-04-09T12:45:05.007Z,16.4
2019-04-09T13:00:04.774Z,16.6
2019-04-09T13:15:05.995Z,16.6
2019-04-09T13:30:04.269Z,16.5
2019-04-09T13:45:04.130Z,16.6
2019-04-09T14:00:04.775Z,16.7
2019-04-09T14:15:04.925Z,16.7
2019-04-09T14:30:04.483Z,16.7
2019-04-09T14:45:06.172Z,16.8
2019-04-09T15:00:06.269Z,16.8
2019-04-09T15:15:05.080Z,16.7
2019-04-09T15:30:04.242Z,16.7
2019-04-09T15:45:04.599Z,16.6
2019-04-09T16:00:04.909Z,16.7
2019-04-09T16:15:04.406Z,16.7
2019-04-09T16:30:04.560Z,16.7
2019-04-09T16:45:08.127Z,16.7
2019-04-09T17:00:09.313Z,16.7
2019-04-09T17:15:04.268Z,16.6
2019-04-09T17:30:05.840Z,16.5
2019-04-09T17:45:04.376Z,16.4
2019-04-09T18:00:04.784Z,16.3
2019-04-09T18:15:05.116Z,16.2
2019-04-09T18:30:04.730Z,16.1
2019-04-09T18:45:05.038Z,16
2019-04-09T19:00:09.592Z,15.9
2019-04-09T19:15:04.947Z,15.8
2019-04-09T19:30:04.529Z,15.7
2019-04-09T19:45:04.844Z,15.6
2019-04-09T20:00:04.681Z,15.5
2019-04-09T20:15:05.994Z,15.4
2019-04-09T20:30:05.796Z,15.3
2019-04-09T20:45:04.429Z,15.2
2019-04-09T21:00:12.828Z,15.1
2019-04-09T21:15:05.990Z,15
2019-04-09T21:30:04.151Z,15
2019-04-09T21:45:05.085Z,14.9
2019-04-09T22:00:04.468Z,14.7
2019-04-09T22:15:04.737Z,14.7
2019-04-09T22:45:05.044Z,14.5
2019-04-09T23:00:04.924Z,14.5
2019-04-09T23:15:05.216Z,14.3
2019-04-09T23:30:05.759Z,14.3
2019-04-09T23:45:04.108Z,14.2
